Time;durP1;ratioP1;P1;durP2;ratioP2;P2;SDS_P1;SDS_P2;PMS_P1;PMS_P2;Temp;Humidity;BMP_temperature;BMP_pressure;BME280_temperature;BME280_humidity;BME280_pressure;Samples;Min_cycle;Max_cycle;Signal;HPM_P1;HPM_P2
2021/06/07 00:01:06;;;;;;;51.33;46.10;;;;;;;;;;5032000;28;20488;-69
2021/06/07 00:03:33;;;;;;;54.37;48.90;;;;;;;;;;5032351;28;20813;-67
2021/06/07 00:05:59;;;;;;;54.03;48.73;;;;;;;;;;5031575;28;20453;-69
2021/06/07 00:08:27;;;;;;;50.97;46.00;;;;;;;;;;5031956;28;20487;-67
2021/06/07 00:10:54;;;;;;;53.40;48.03;;;;;;;;;;5032406;28;20464;-68
2021/06/07 00:13:21;;;;;;;54.40;47.03;;;;;;;;;;5032329;28;20506;-67
2021/06/07 00:15:48;;;;;;;52.97;47.67;;;;;;;;;;5031409;28;20448;-67
2021/06/07 00:18:16;;;;;;;55.50;49.70;;;;;;;;;;5032425;28;20815;-66
2021/06/07 00:20:44;;;;;;;56.77;50.70;;;;;;;;;;5031964;28;20543;-68
2021/06/07 00:23:11;;;;;;;56.43;49.20;;;;;;;;;;5032208;28;20449;-67
2021/06/07 00:25:40;;;;;;;53.47;47.77;;;;;;;;;;5031255;28;20449;-69
2021/06/07 00:28:07;;;;;;;53.50;48.00;;;;;;;;;;5032017;28;20896;-67
2021/06/07 00:30:34;;;;;;;53.70;48.13;;;;;;;;;;5032121;28;20476;-66
2021/06/07 00:33:01;;;;;;;55.87;49.77;;;;;;;;;;5031958;28;20453;-67
2021/06/07 00:35:28;;;;;;;55.33;49.70;;;;;;;;;;5031379;28;20848;-67
2021/06/07 00:37:55;;;;;;;55.40;49.53;;;;;;;;;;5031742;28;20444;-66
2021/06/07 00:40:24;;;;;;;56.97;51.30;;;;;;;;;;5031501;28;21049;-66
2021/06/07 00:42:55;;;;;;;53.70;48.20;;;;;;;;;;5031891;28;20448;-68
2021/06/07 00:45:24;;;;;;;57.37;51.27;;;;;;;;;;5031379;28;20447;-68
2021/06/07 00:47:51;;;;;;;58.30;50.10;;;;;;;;;;5031260;28;20484;-69
2021/06/07 00:50:23;;;;;;;55.30;49.50;;;;;;;;;;5031721;28;20475;-66
2021/06/07 00:55:35;;;;;;;55.30;49.40;;;;;;;;;;5030785;28;20432;-68
2021/06/07 00:58:04;;;;;;;55.57;49.77;;;;;;;;;;5031321;28;20443;-68
2021/06/07 01:00:31;;;;;;;56.57;50.57;;;;;;;;;;5031192;28;20995;-68
2021/06/07 01:02:58;;;;;;;55.27;49.50;;;;;;;;;;5031653;28;20429;-68
2021/06/07 01:05:25;;;;;;;59.03;52.90;;;;;;;;;;5029116;28;20939;-68
2021/06/07 01:07:52;;;;;;;59.97;51.63;;;;;;;;;;5031186;28;20491;-67
2021/06/07 01:10:19;;;;;;;56.13;49.33;;;;;;;;;;5031263;28;20472;-67
2021/06/07 01:12:45;;;;;;;60.30;52.00;;;;;;;;;;5031721;28;20448;-68
2021/06/07 01:15:14;;;;;;;56.07;49.77;;;;;;;;;;5031160;28;20523;-68
2021/06/07 01:17:41;;;;;;;57.43;51.13;;;;;;;;;;5031182;28;20952;-69
2021/06/07 01:20:09;;;;;;;58.10;52.00;;;;;;;;;;5031237;28;20966;-67
2021/06/07 01:22:37;;;;;;;59.17;52.67;;;;;;;;;;5035414;28;20449;-68
2021/06/07 01:25:06;;;;;;;59.27;52.90;;;;;;;;;;5035495;28;20502;-67
2021/06/07 01:27:33;;;;;;;58.63;52.60;;;;;;;;;;5034213;28;20999;-68
2021/06/07 01:29:59;;;;;;;57.63;51.77;;;;;;;;;;5035443;28;20747;-67
2021/06/07 01:32:26;;;;;;;58.27;52.17;;;;;;;;;;5035316;28;20451;-68
2021/06/07 01:34:52;;;;;;;64.07;57.10;;;;;;;;;;5035026;28;20840;-67
2021/06/07 01:37:19;;;;;;;63.33;56.63;;;;;;;;;;5034702;28;20563;-68
2021/06/07 01:39:47;;;;;;;62.60;55.70;;;;;;;;;;5035251;28;20497;-70
2021/06/07 01:42:13;;;;;;;58.60;52.43;;;;;;;;;;5034675;28;21037;-67
2021/06/07 01:44:40;;;;;;;62.57;56.17;;;;;;;;;;5035047;28;20459;-67
2021/06/07 01:47:07;;;;;;;57.73;51.63;;;;;;;;;;5034278;28;20480;-67
2021/06/07 01:49:33;;;;;;;65.30;57.63;;;;;;;;;;5035066;28;20801;-68
2021/06/07 01:52:00;;;;;;;61.93;55.13;;;;;;;;;;5035136;28;20482;-70
2021/06/07 01:54:27;;;;;;;60.07;53.63;;;;;;;;;;5035010;28;20450;-68
2021/06/07 01:56:55;;;;;;;62.77;56.27;;;;;;;;;;5034112;28;20445;-67
2021/06/07 01:59:21;;;;;;;63.17;55.83;;;;;;;;;;5034853;28;20445;-67
2021/06/07 02:01:48;;;;;;;61.73;54.50;;;;;;;;;;5034316;28;20476;-67
2021/06/07 02:04:14;;;;;;;62.57;55.93;;;;;;;;;;5034858;28;20473;-68
2021/06/07 02:06:41;;;;;;;60.30;53.97;;;;;;;;;;5033423;28;20962;-68
2021/06/07 02:09:07;;;;;;;61.07;54.57;;;;;;;;;;5034392;28;20494;-70
2021/06/07 02:11:34;;;;;;;60.73;52.80;;;;;;;;;;5034579;28;20474;-67
2021/06/07 02:14:03;;;;;;;57.57;50.70;;;;;;;;;;5034731;28;20450;-68
2021/06/07 02:16:31;;;;;;;61.40;54.53;;;;;;;;;;5033461;28;20449;-67
2021/06/07 02:18:58;;;;;;;59.40;53.47;;;;;;;;;;5034655;28;20448;-67
2021/06/07 02:21:27;;;;;;;57.83;51.27;;;;;;;;;;5034049;28;20468;-70
2021/06/07 02:23:54;;;;;;;56.90;50.43;;;;;;;;;;5034285;28;20448;-68
2021/06/07 02:26:21;;;;;;;58.57;52.60;;;;;;;;;;5033782;28;20928;-67
2021/06/07 02:28:49;;;;;;;57.23;51.33;;;;;;;;;;5033899;28;20534;-67
2021/06/07 02:31:17;;;;;;;56.23;50.60;;;;;;;;;;5033261;28;20530;-68
2021/06/07 02:33:44;;;;;;;58.27;52.17;;;;;;;;;;5033886;28;20445;-68
2021/06/07 02:36:11;;;;;;;56.47;50.57;;;;;;;;;;5033336;28;20456;-70
2021/06/07 02:38:37;;;;;;;54.87;49.03;;;;;;;;;;5033825;28;20798;-70
2021/06/07 02:41:04;;;;;;;57.63;51.60;;;;;;;;;;5033807;28;20468;-68
2021/06/07 02:43:30;;;;;;;56.80;50.83;;;;;;;;;;5034094;28;20452;-70
2021/06/07 02:45:57;;;;;;;55.97;50.10;;;;;;;;;;5033138;28;20531;-70
2021/06/07 02:48:25;;;;;;;58.40;50.27;;;;;;;;;;5033847;28;20522;-69
2021/06/07 02:50:52;;;;;;;58.60;52.30;;;;;;;;;;5033796;28;20469;-69
2021/06/07 02:53:18;;;;;;;60.83;54.23;;;;;;;;;;5033548;28;20944;-69
2021/06/07 02:55:47;;;;;;;63.30;53.90;;;;;;;;;;5033313;28;20448;-70
2021/06/07 02:58:14;;;;;;;64.90;55.20;;;;;;;;;;5033265;28;21055;-70
2021/06/07 03:00:41;;;;;;;64.77;56.53;;;;;;;;;;5033535;28;20480;-70
2021/06/07 03:03:09;;;;;;;67.73;54.60;;;;;;;;;;5033402;28;20444;-69
2021/06/07 03:05:38;;;;;;;69.50;56.50;;;;;;;;;;5032615;28;20964;-68
2021/06/07 03:08:05;;;;;;;64.70;54.03;;;;;;;;;;5033065;28;20488;-69
2021/06/07 03:10:32;;;;;;;67.50;54.83;;;;;;;;;;5033252;28;20484;-69
2021/06/07 03:12:59;;;;;;;66.30;54.03;;;;;;;;;;5033176;28;20444;-70
2021/06/07 03:15:26;;;;;;;62.73;52.97;;;;;;;;;;5032538;28;20463;-69
2021/06/07 03:17:53;;;;;;;61.03;53.23;;;;;;;;;;5033058;28;20514;-69
2021/06/07 03:20:22;;;;;;;62.77;56.03;;;;;;;;;;5033159;28;20480;-69
2021/06/07 03:22:50;;;;;;;66.50;55.10;;;;;;;;;;5033034;28;20482;-69
2021/06/07 03:25:16;;;;;;;63.67;56.43;;;;;;;;;;5032708;28;20444;-68
2021/06/07 03:27:43;;;;;;;62.43;53.20;;;;;;;;;;5032880;28;20538;-69
2021/06/07 03:30:11;;;;;;;59.90;53.37;;;;;;;;;;5032977;28;20925;-69
2021/06/07 03:32:38;;;;;;;62.33;55.17;;;;;;;;;;5032686;28;20449;-70
2021/06/07 03:35:06;;;;;;;58.90;52.03;;;;;;;;;;5033290;28;20531;-69
2021/06/07 03:37:32;;;;;;;68.77;53.53;;;;;;;;;;5032668;28;20749;-69
2021/06/07 03:40:00;;;;;;;60.63;54.37;;;;;;;;;;5032951;28;20444;-70
2021/06/07 03:42:27;;;;;;;57.77;51.47;;;;;;;;;;5032572;28;20449;-69
2021/06/07 03:44:53;;;;;;;65.37;55.80;;;;;;;;;;5032129;28;20444;-69
2021/06/07 03:47:20;;;;;;;72.73;57.00;;;;;;;;;;5031922;28;20485;-69
2021/06/07 03:49:46;;;;;;;64.80;57.87;;;;;;;;;;5032783;28;20463;-70
2021/06/07 03:52:13;;;;;;;63.93;52.87;;;;;;;;;;5032582;28;20472;-69
2021/06/07 03:54:40;;;;;;;60.83;54.47;;;;;;;;;;5032584;28;20522;-69
2021/06/07 03:57:08;;;;;;;66.27;56.27;;;;;;;;;;5032040;28;20494;-70
2021/06/07 03:59:35;;;;;;;62.83;56.13;;;;;;;;;;5032445;28;20456;-68
2021/06/07 04:02:03;;;;;;;67.77;55.70;;;;;;;;;;5057089;22;20502;-72
2021/06/07 04:04:30;;;;;;;63.80;54.17;;;;;;;;;;5011146;28;20449;-72
2021/06/07 04:06:56;;;;;;;67.50;60.67;;;;;;;;;;5023270;28;20499;-74
2021/06/07 04:09:23;;;;;;;71.67;63.77;;;;;;;;;;5032211;28;20934;-68
2021/06/07 04:11:50;;;;;;;65.87;59.03;;;;;;;;;;5032381;28;20469;-73
2021/06/07 04:14:18;;;;;;;64.80;58.03;;;;;;;;;;5031534;28;20998;-75
2021/06/07 04:16:45;;;;;;;67.83;60.97;;;;;;;;;;5031309;28;20452;-74
2021/06/07 04:19:12;;;;;;;64.63;58.33;;;;;;;;;;5032037;28;20998;-70
2021/06/07 04:21:38;;;;;;;67.77;60.73;;;;;;;;;;5030515;28;21002;-72
2021/06/07 04:24:06;;;;;;;69.87;62.33;;;;;;;;;;5032060;28;20444;-70
2021/06/07 04:26:32;;;;;;;76.47;64.03;;;;;;;;;;5031525;28;20440;-75
2021/06/07 04:28:59;;;;;;;72.30;62.90;;;;;;;;;;5030974;28;20541;-75
2021/06/07 04:31:28;;;;;;;71.37;63.90;;;;;;;;;;5031675;28;20887;-77
2021/06/07 04:33:55;;;;;;;67.57;60.33;;;;;;;;;;5031691;28;20539;-71
2021/06/07 04:36:21;;;;;;;71.90;64.00;;;;;;;;;;5031104;28;20453;-75
2021/06/07 04:38:48;;;;;;;70.77;62.97;;;;;;;;;;5031636;28;20445;-70
2021/06/07 04:41:15;;;;;;;67.67;60.37;;;;;;;;;;5031713;28;20840;-70
2021/06/07 04:43:41;;;;;;;65.53;58.57;;;;;;;;;;5031556;28;20943;-75
2021/06/07 04:46:08;;;;;;;66.53;59.60;;;;;;;;;;5030979;28;20448;-70
2021/06/07 04:48:40;;;;;;;66.27;59.53;;;;;;;;;;5031499;28;20480;-76
2021/06/07 04:51:07;;;;;;;65.70;59.00;;;;;;;;;;5031840;28;20472;-70
2021/06/07 04:53:33;;;;;;;66.17;59.10;;;;;;;;;;5031840;28;20459;-76
2021/06/07 04:56:00;;;;;;;63.03;56.33;;;;;;;;;;5029796;28;20458;-74
2021/06/07 04:58:28;;;;;;;67.13;60.50;;;;;;;;;;5031426;28;20445;-75
2021/06/07 05:00:55;;;;;;;67.20;60.40;;;;;;;;;;5031334;28;20468;-71
2021/06/07 05:03:22;;;;;;;63.07;57.10;;;;;;;;;;5031979;28;20452;-78
2021/06/07 05:05:50;;;;;;;64.90;58.10;;;;;;;;;;5031121;28;20857;-72
2021/06/07 05:08:16;;;;;;;64.20;57.60;;;;;;;;;;5031355;28;20856;-70
2021/06/07 05:10:43;;;;;;;61.93;55.53;;;;;;;;;;5031415;28;20456;-72
2021/06/07 05:13:10;;;;;;;71.20;64.30;;;;;;;;;;5031531;28;20456;-75
2021/06/07 05:15:37;;;;;;;64.10;57.93;;;;;;;;;;5030479;28;20459;-70
2021/06/07 05:18:04;;;;;;;63.93;57.57;;;;;;;;;;5031310;28;20444;-74
2021/06/07 05:20:31;;;;;;;60.40;54.57;;;;;;;;;;5031262;28;20548;-73
2021/06/07 05:22:59;;;;;;;59.43;53.63;;;;;;;;;;5031394;28;20448;-71
2021/06/07 05:25:27;;;;;;;66.13;59.23;;;;;;;;;;5030682;28;20455;-75
2021/06/07 05:27:54;;;;;;;61.80;55.47;;;;;;;;;;5031393;28;20484;-75
2021/06/07 05:30:22;;;;;;;60.80;54.67;;;;;;;;;;5030983;28;20455;-71
2021/06/07 05:32:49;;;;;;;60.40;54.10;;;;;;;;;;5031409;28;20474;-75
2021/06/07 05:35:16;;;;;;;63.20;57.00;;;;;;;;;;5030500;28;20830;-72
2021/06/07 05:37:43;;;;;;;58.53;52.83;;;;;;;;;;5031069;28;20448;-75
2021/06/07 05:40:12;;;;;;;63.23;56.93;;;;;;;;;;5031219;28;20452;-77
2021/06/07 05:42:39;;;;;;;66.50;59.90;;;;;;;;;;5030920;28;20475;-70
2021/06/07 05:45:08;;;;;;;63.53;57.10;;;;;;;;;;5031153;28;20456;-74
2021/06/07 05:47:35;;;;;;;62.40;56.20;;;;;;;;;;5030221;28;20488;-78
2021/06/07 05:50:01;;;;;;;59.40;53.77;;;;;;;;;;5030958;28;20482;-69
2021/06/07 05:52:28;;;;;;;62.40;56.47;;;;;;;;;;5031041;28;20503;-71
2021/06/07 05:54:55;;;;;;;63.07;56.90;;;;;;;;;;5031117;28;20455;-75
2021/06/07 05:57:23;;;;;;;60.80;54.80;;;;;;;;;;5030111;28;20967;-72
2021/06/07 05:59:49;;;;;;;60.57;54.73;;;;;;;;;;5031091;28;20445;-77
2021/06/07 06:02:16;;;;;;;59.03;53.27;;;;;;;;;;5030716;28;20495;-74
2021/06/07 06:04:43;;;;;;;58.80;53.40;;;;;;;;;;5030901;28;20449;-75
2021/06/07 06:07:10;;;;;;;57.53;52.23;;;;;;;;;;5032329;28;20956;-70
2021/06/07 06:09:37;;;;;;;56.20;51.10;;;;;;;;;;5034599;28;20484;-69
2021/06/07 06:12:04;;;;;;;57.60;52.00;;;;;;;;;;5034509;28;21056;-72
2021/06/07 06:14:32;;;;;;;58.47;53.03;;;;;;;;;;5034619;28;20548;-78
2021/06/07 06:16:59;;;;;;;57.73;52.13;;;;;;;;;;5033964;28;20529;-73
2021/06/07 06:19:25;;;;;;;59.90;54.40;;;;;;;;;;5034311;28;20452;-75
2021/06/07 06:21:52;;;;;;;58.40;53.23;;;;;;;;;;5034164;28;20468;-72
2021/06/07 06:24:19;;;;;;;56.73;51.23;;;;;;;;;;5034181;28;20444;-70
2021/06/07 06:26:46;;;;;;;56.27;51.13;;;;;;;;;;5033424;28;20453;-77
2021/06/07 06:29:12;;;;;;;58.40;53.00;;;;;;;;;;5034148;28;20494;-76
2021/06/07 06:31:40;;;;;;;56.70;51.43;;;;;;;;;;5034374;28;20471;-78
2021/06/07 06:34:07;;;;;;;56.97;51.60;;;;;;;;;;5033604;28;20499;-71
2021/06/07 06:36:34;;;;;;;54.90;49.87;;;;;;;;;;5033691;28;20452;-70
2021/06/07 06:39:02;;;;;;;56.70;51.57;;;;;;;;;;5034207;28;20456;-77
2021/06/07 06:41:30;;;;;;;77.70;70.40;;;;;;;;;;5034089;28;20472;-73
2021/06/07 06:43:57;;;;;;;55.80;50.60;;;;;;;;;;5034333;28;20564;-73
2021/06/07 06:46:23;;;;;;;54.80;49.50;;;;;;;;;;5032960;28;20506;-71
2021/06/07 06:48:51;;;;;;;55.80;50.80;;;;;;;;;;5033613;28;20485;-75
2021/06/07 06:51:18;;;;;;;56.67;51.47;;;;;;;;;;5033983;28;20483;-78
2021/06/07 06:53:45;;;;;;;56.70;51.07;;;;;;;;;;5033987;28;20445;-74
2021/06/07 06:56:11;;;;;;;56.57;51.17;;;;;;;;;;5033259;28;20456;-68
2021/06/07 06:58:38;;;;;;;56.97;51.73;;;;;;;;;;5033757;28;20455;-75
2021/06/07 07:01:05;;;;;;;57.83;52.53;;;;;;;;;;5033278;28;20992;-72
2021/06/07 07:03:32;;;;;;;56.53;51.40;;;;;;;;;;5033475;28;20452;-77
2021/06/07 07:06:00;;;;;;;60.37;54.37;;;;;;;;;;5032926;28;20483;-77
2021/06/07 07:08:29;;;;;;;59.90;53.90;;;;;;;;;;5034586;28;20510;-77
2021/06/07 07:10:56;;;;;;;53.93;48.63;;;;;;;;;;5033498;28;20484;-75
2021/06/07 07:13:23;;;;;;;58.27;52.47;;;;;;;;;;5033031;28;21017;-74
2021/06/07 07:15:49;;;;;;;56.27;50.80;;;;;;;;;;5032730;28;20449;-78
2021/06/07 07:18:16;;;;;;;52.67;48.07;;;;;;;;;;5032251;28;20451;-75
2021/06/07 07:20:43;;;;;;;55.43;50.10;;;;;;;;;;5033063;28;20453;-74
2021/06/07 07:23:12;;;;;;;53.43;48.57;;;;;;;;;;5033277;28;20461;-73
2021/06/07 07:25:39;;;;;;;58.17;52.80;;;;;;;;;;5032662;28;20452;-76
2021/06/07 07:28:07;;;;;;;52.67;47.97;;;;;;;;;;5032240;28;20553;-69
2021/06/07 07:30:38;;;;;;;52.60;47.90;;;;;;;;;;5033207;28;20460;-72
2021/06/07 07:33:05;;;;;;;52.63;47.77;;;;;;;;;;5032956;28;20940;-71
2021/06/07 07:35:32;;;;;;;52.23;47.57;;;;;;;;;;5032082;28;20968;-69
2021/06/07 07:37:58;;;;;;;52.17;47.53;;;;;;;;;;5032794;28;20491;-75
2021/06/07 07:40:27;;;;;;;48.83;44.63;;;;;;;;;;5032584;28;20445;-74
2021/06/07 07:42:56;;;;;;;47.67;43.70;;;;;;;;;;5032468;28;20523;-72
2021/06/07 07:45:25;;;;;;;46.83;42.87;;;;;;;;;;5031938;28;20536;-71
2021/06/07 07:47:52;;;;;;;49.37;45.10;;;;;;;;;;5032895;28;20484;-69
2021/06/07 07:50:19;;;;;;;48.73;44.90;;;;;;;;;;5032317;28;20458;-74
2021/06/07 07:52:46;;;;;;;47.33;43.33;;;;;;;;;;5032910;28;20534;-76
2021/06/07 07:55:14;;;;;;;48.40;44.30;;;;;;;;;;5031990;28;20449;-67
2021/06/07 07:57:43;;;;;;;46.73;42.63;;;;;;;;;;5034008;28;20590;-71
2021/06/07 08:00:11;;;;;;;45.53;41.83;;;;;;;;;;5032421;28;20854;-68
2021/06/07 08:02:37;;;;;;;44.97;41.37;;;;;;;;;;5032221;28;20487;-68
2021/06/07 08:05:04;;;;;;;44.43;40.70;;;;;;;;;;5032250;28;20449;-66
2021/06/07 08:07:31;;;;;;;43.50;40.07;;;;;;;;;;5031404;28;20448;-66
2021/06/07 08:09:57;;;;;;;41.57;38.17;;;;;;;;;;5032483;28;20445;-66
2021/06/07 08:12:24;;;;;;;43.63;40.13;;;;;;;;;;5032124;28;21032;-67
2021/06/07 08:14:52;;;;;;;43.50;39.87;;;;;;;;;;5032293;28;20453;-68
2021/06/07 08:17:18;;;;;;;43.23;39.73;;;;;;;;;;5031754;28;20486;-66
2021/06/07 08:19:45;;;;;;;41.87;38.37;;;;;;;;;;5032623;28;20466;-66
2021/06/07 08:22:12;;;;;;;39.17;36.10;;;;;;;;;;5031924;28;20998;-66
2021/06/07 08:24:39;;;;;;;37.47;34.40;;;;;;;;;;5032197;28;20453;-65
2021/06/07 08:27:06;;;;;;;39.17;36.20;;;;;;;;;;5031557;28;20916;-66
2021/06/07 08:29:33;;;;;;;36.03;33.20;;;;;;;;;;5031946;28;20484;-66
2021/06/07 08:32:01;;;;;;;37.17;34.20;;;;;;;;;;5032111;28;20498;-66
2021/06/07 08:34:28;;;;;;;34.70;31.90;;;;;;;;;;5032079;28;20449;-66
2021/06/07 08:36:54;;;;;;;37.90;34.90;;;;;;;;;;5031296;28;20479;-66
2021/06/07 08:39:21;;;;;;;38.37;35.40;;;;;;;;;;5032047;28;20449;-66
2021/06/07 08:41:48;;;;;;;41.10;37.70;;;;;;;;;;5031959;28;20506;-66
2021/06/07 08:44:14;;;;;;;40.53;37.30;;;;;;;;;;5032013;28;20464;-66
2021/06/07 08:46:41;;;;;;;39.10;35.97;;;;;;;;;;5031348;28;20456;-66
2021/06/07 08:49:09;;;;;;;41.20;37.90;;;;;;;;;;5031372;28;20476;-66
2021/06/07 08:51:36;;;;;;;41.00;37.70;;;;;;;;;;5031873;28;20478;-65
2021/06/07 08:54:02;;;;;;;40.67;37.30;;;;;;;;;;5031852;28;20948;-65
2021/06/07 08:56:29;;;;;;;42.80;39.40;;;;;;;;;;5031027;28;20449;-65
2021/06/07 08:58:55;;;;;;;47.27;43.47;;;;;;;;;;5031916;28;20453;-65
2021/06/07 09:01:22;;;;;;;47.67;43.63;;;;;;;;;;5031344;28;20484;-65
2021/06/07 09:03:49;;;;;;;48.80;44.93;;;;;;;;;;5031451;28;20456;-66
2021/06/07 09:06:23;;;;;;;46.47;42.73;;;;;;;;;;5031405;28;20464;-66
2021/06/07 09:08:50;;;;;;;51.73;47.73;;;;;;;;;;5031110;28;20480;-66
2021/06/07 09:11:18;;;;;;;54.10;49.87;;;;;;;;;;5031569;28;20477;-66
2021/06/07 09:13:45;;;;;;;53.60;49.40;;;;;;;;;;5032077;28;20510;-66
2021/06/07 09:16:12;;;;;;;52.73;48.60;;;;;;;;;;5030934;28;20449;-66
2021/06/07 09:18:40;;;;;;;55.37;50.87;;;;;;;;;;5031659;28;20479;-66
2021/06/07 09:21:09;;;;;;;53.60;49.10;;;;;;;;;;5031344;28;20483;-66
2021/06/07 09:23:42;;;;;;;52.87;48.47;;;;;;;;;;5031485;28;20449;-65
2021/06/07 09:26:23;;;;;;;52.10;48.00;;;;;;;;;;5030922;28;20451;-65
2021/06/07 09:28:50;;;;;;;53.20;48.80;;;;;;;;;;5030668;28;20498;-65
2021/06/07 09:31:16;;;;;;;48.07;44.27;;;;;;;;;;5031238;28;20980;-66
2021/06/07 09:33:47;;;;;;;48.00;44.30;;;;;;;;;;5031741;28;20490;-65
2021/06/07 09:36:24;;;;;;;52.30;48.30;;;;;;;;;;5031286;28;20452;-65
2021/06/07 09:38:55;;;;;;;51.07;47.03;;;;;;;;;;5031294;28;20459;-66
2021/06/07 09:41:22;;;;;;;50.83;46.77;;;;;;;;;;5031971;28;20526;-66
2021/06/07 09:43:49;;;;;;;49.23;45.20;;;;;;;;;;5036019;28;20448;-65
2021/06/07 09:46:15;;;;;;;44.13;40.63;;;;;;;;;;5034639;28;20448;-65
2021/06/07 09:48:42;;;;;;;44.97;41.60;;;;;;;;;;5035174;28;20532;-66
2021/06/07 09:51:09;;;;;;;39.33;36.20;;;;;;;;;;5034856;28;20878;-66
2021/06/07 09:53:39;;;;;;;39.60;36.60;;;;;;;;;;5035319;28;20965;-66
2021/06/07 09:56:07;;;;;;;38.27;35.47;;;;;;;;;;5033996;28;20460;-66
2021/06/07 09:58:35;;;;;;;38.43;35.30;;;;;;;;;;5034940;28;20461;-66
2021/06/07 10:01:02;;;;;;;39.07;36.03;;;;;;;;;;5034676;28;20489;-66
2021/06/07 10:03:29;;;;;;;41.73;38.43;;;;;;;;;;5036496;22;20497;-67
2021/06/07 10:05:58;;;;;;;41.80;38.50;;;;;;;;;;5023215;28;20449;-67
2021/06/07 10:08:26;;;;;;;42.37;39.07;;;;;;;;;;5033752;28;20484;-67
2021/06/07 10:10:54;;;;;;;41.83;38.73;;;;;;;;;;5034629;28;20543;-68
2021/06/07 10:13:22;;;;;;;42.63;39.30;;;;;;;;;;5034843;28;20827;-67
2021/06/07 10:15:49;;;;;;;41.40;38.10;;;;;;;;;;5033438;28;20822;-66
2021/06/07 10:18:16;;;;;;;40.70;37.57;;;;;;;;;;5034396;28;20543;-69
2021/06/07 10:20:47;;;;;;;41.70;38.50;;;;;;;;;;5034732;28;20471;-67
2021/06/07 10:23:13;;;;;;;39.37;36.33;;;;;;;;;;5034506;28;20476;-69
2021/06/07 10:25:40;;;;;;;37.03;34.23;;;;;;;;;;5033526;28;20445;-68
2021/06/07 10:28:07;;;;;;;34.47;31.87;;;;;;;;;;5034025;28;20444;-67
2021/06/07 10:30:39;;;;;;;37.87;34.97;;;;;;;;;;5033940;28;20453;-67
2021/06/07 10:33:24;;;;;;;35.83;33.13;;;;;;;;;;5034093;28;20453;-68
2021/06/07 10:35:51;;;;;;;37.23;34.30;;;;;;;;;;5033539;28;20464;-65
2021/06/07 10:38:28;;;;;;;35.90;33.20;;;;;;;;;;5033926;28;20478;-65
2021/06/07 10:41:14;;;;;;;32.13;29.80;;;;;;;;;;5034044;28;20818;-69
2021/06/07 10:43:44;;;;;;;31.50;29.13;;;;;;;;;;5033064;28;20991;-66
2021/06/07 10:46:22;;;;;;;33.67;30.87;;;;;;;;;;5033015;28;20451;-67
2021/06/07 10:48:51;;;;;;;32.40;29.90;;;;;;;;;;5033938;28;20484;-67
2021/06/07 10:51:18;;;;;;;31.70;29.00;;;;;;;;;;5033628;28;20835;-67
2021/06/07 10:53:45;;;;;;;30.60;28.50;;;;;;;;;;5031928;28;20472;-67
2021/06/07 10:56:12;;;;;;;32.13;29.83;;;;;;;;;;5032921;28;20448;-67
2021/06/07 10:58:50;;;;;;;29.80;27.50;;;;;;;;;;5033417;28;20449;-66
2021/06/07 11:01:16;;;;;;;27.63;25.43;;;;;;;;;;5033655;28;20429;-66
2021/06/07 11:03:54;;;;;;;30.77;28.37;;;;;;;;;;5032935;28;20477;-67
2021/06/07 11:06:20;;;;;;;30.47;28.07;;;;;;;;;;5032662;28;20969;-66
2021/06/07 11:09:01;;;;;;;29.10;26.90;;;;;;;;;;5033444;28;20488;-67
2021/06/07 11:11:41;;;;;;;28.90;26.60;;;;;;;;;;5033146;28;20527;-66
2021/06/07 11:14:08;;;;;;;25.10;23.30;;;;;;;;;;5033387;28;20466;-66
2021/06/07 11:16:37;;;;;;;26.43;24.30;;;;;;;;;;5032522;28;20444;-66
2021/06/07 11:19:05;;;;;;;24.73;22.93;;;;;;;;;;5033319;28;20487;-69
2021/06/07 11:21:33;;;;;;;27.73;25.70;;;;;;;;;;5032904;28;20452;-69
2021/06/07 11:24:00;;;;;;;23.43;21.63;;;;;;;;;;5033239;28;20445;-67
2021/06/07 11:26:36;;;;;;;24.70;22.80;;;;;;;;;;5032419;28;20444;-66
2021/06/07 11:29:07;;;;;;;24.57;22.73;;;;;;;;;;5033028;28;20495;-66
2021/06/07 11:31:46;;;;;;;21.10;19.30;;;;;;;;;;5032941;28;20460;-67
2021/06/07 11:34:14;;;;;;;21.97;20.37;;;;;;;;;;5033314;28;20456;-67
2021/06/07 11:36:42;;;;;;;21.60;19.80;;;;;;;;;;5032757;28;20506;-68
2021/06/07 11:39:10;;;;;;;21.83;20.23;;;;;;;;;;5032770;28;20799;-66
2021/06/07 11:41:54;;;;;;;19.90;18.30;;;;;;;;;;5032678;28;20463;-67
2021/06/07 11:44:41;;;;;;;20.13;18.67;;;;;;;;;;5032099;28;20452;-67
2021/06/07 11:47:07;;;;;;;18.83;17.50;;;;;;;;;;5031669;28;20478;-67
2021/06/07 11:49:35;;;;;;;16.40;15.10;;;;;;;;;;5032202;28;20862;-69
2021/06/07 11:52:03;;;;;;;22.60;20.80;;;;;;;;;;5032350;28;20469;-67
2021/06/07 11:54:50;;;;;;;18.47;17.07;;;;;;;;;;5032715;28;20503;-67
2021/06/07 11:57:17;;;;;;;19.90;18.40;;;;;;;;;;5031997;28;20519;-67
2021/06/07 11:59:43;;;;;;;21.23;19.80;;;;;;;;;;5032467;28;20444;-66
2021/06/07 12:02:10;;;;;;;20.67;19.07;;;;;;;;;;5032154;28;20534;-66
2021/06/07 12:04:39;;;;;;;19.63;18.07;;;;;;;;;;5032170;28;20459;-66
2021/06/07 12:07:07;;;;;;;19.67;18.10;;;;;;;;;;5031455;28;20455;-66
2021/06/07 12:09:34;;;;;;;18.30;16.90;;;;;;;;;;5032506;28;20485;-66
2021/06/07 12:12:01;;;;;;;17.47;16.23;;;;;;;;;;5031814;28;20492;-67
2021/06/07 12:14:29;;;;;;;20.63;19.03;;;;;;;;;;5032215;28;20486;-66
2021/06/07 12:17:01;;;;;;;16.37;15.13;;;;;;;;;;5031606;28;20464;-66
2021/06/07 12:19:31;;;;;;;19.10;17.70;;;;;;;;;;5032026;28;20503;-66
2021/06/07 12:21:59;;;;;;;23.13;21.40;;;;;;;;;;5031984;28;20487;-69
2021/06/07 12:24:26;;;;;;;17.03;15.63;;;;;;;;;;5032185;28;20445;-66
2021/06/07 12:29:38;;;;;;;19.77;18.33;;;;;;;;;;5031923;28;20471;-67
2021/06/07 12:32:07;;;;;;;19.30;17.80;;;;;;;;;;5031586;28;20734;-67
2021/06/07 12:34:33;;;;;;;22.80;20.90;;;;;;;;;;5031543;28;21011;-67
2021/06/07 12:37:02;;;;;;;20.30;18.70;;;;;;;;;;5031225;28;20454;-67
2021/06/07 12:39:28;;;;;;;19.27;17.83;;;;;;;;;;5031908;28;20440;-66
2021/06/07 12:41:55;;;;;;;18.30;16.90;;;;;;;;;;5032772;28;20471;-66
2021/06/07 12:44:22;;;;;;;19.23;17.73;;;;;;;;;;5031460;28;20463;-67
2021/06/07 12:46:49;;;;;;;20.20;18.70;;;;;;;;;;5030678;28;20449;-66
2021/06/07 12:49:25;;;;;;;22.30;20.50;;;;;;;;;;5031735;28;20485;-68
2021/06/07 12:51:59;;;;;;;21.63;19.93;;;;;;;;;;5032085;28;20472;-66
2021/06/07 12:54:28;;;;;;;20.80;19.00;;;;;;;;;;5032130;28;20452;-66
2021/06/07 12:56:56;;;;;;;23.17;21.17;;;;;;;;;;5030469;28;20495;-66
2021/06/07 12:59:27;;;;;;;19.37;17.80;;;;;;;;;;5031432;28;20820;-66
2021/06/07 13:01:54;;;;;;;20.67;18.87;;;;;;;;;;5031696;28;20477;-67
2021/06/07 13:04:26;;;;;;;20.83;19.20;;;;;;;;;;5031758;28;20567;-66
2021/06/07 13:06:52;;;;;;;21.20;19.43;;;;;;;;;;5030670;28;20792;-67
2021/06/07 13:09:32;;;;;;;20.40;18.70;;;;;;;;;;5031377;28;20480;-68
2021/06/07 13:11:59;;;;;;;20.30;18.70;;;;;;;;;;5031576;28;20483;-66
2021/06/07 13:14:26;;;;;;;20.33;18.40;;;;;;;;;;5031756;28;20471;-66
2021/06/07 13:16:55;;;;;;;20.33;18.63;;;;;;;;;;5032668;28;20527;-66
2021/06/07 13:19:24;;;;;;;21.80;20.00;;;;;;;;;;5035734;28;20531;-67
2021/06/07 13:21:55;;;;;;;22.33;20.30;;;;;;;;;;5035240;28;20944;-67
2021/06/07 13:24:33;;;;;;;21.00;19.20;;;;;;;;;;5035552;28;20437;-68
2021/06/07 13:27:00;;;;;;;23.37;21.37;;;;;;;;;;5034528;28;20433;-66
2021/06/07 13:29:28;;;;;;;20.03;18.33;;;;;;;;;;5034958;28;21010;-66
2021/06/07 13:31:56;;;;;;;20.53;18.83;;;;;;;;;;5035503;28;20464;-66
2021/06/07 13:34:28;;;;;;;20.97;19.27;;;;;;;;;;5035254;28;20453;-66
2021/06/07 13:37:19;;;;;;;22.20;20.40;;;;;;;;;;5034132;28;20524;-67
2021/06/07 13:39:56;;;;;;;22.20;20.40;;;;;;;;;;5020139;28;20453;-68
2021/06/07 13:42:23;;;;;;;21.27;19.40;;;;;;;;;;5034929;28;20456;-67
2021/06/07 13:44:53;;;;;;;20.93;19.17;;;;;;;;;;5035012;28;20490;-67
2021/06/07 13:47:22;;;;;;;20.50;18.90;;;;;;;;;;5034553;28;20439;-66
2021/06/07 13:50:06;;;;;;;23.83;21.80;;;;;;;;;;5034951;28;21002;-66
2021/06/07 13:52:39;;;;;;;23.27;21.30;;;;;;;;;;5035160;28;20469;-66
2021/06/07 13:55:13;;;;;;;24.43;22.53;;;;;;;;;;5034942;28;20452;-66
2021/06/07 13:58:00;;;;;;;23.50;21.20;;;;;;;;;;5034453;28;20463;-66
2021/06/07 14:00:27;;;;;;;21.97;20.07;;;;;;;;;;5035030;28;20437;-66
2021/06/07 14:02:54;;;;;;;21.97;20.07;;;;;;;;;;5034440;28;20476;-66
2021/06/07 14:05:21;;;;;;;22.70;20.80;;;;;;;;;;5034284;28;20459;-66
2021/06/07 14:07:47;;;;;;;23.40;21.50;;;;;;;;;;5034462;28;20452;-66
2021/06/07 14:10:16;;;;;;;24.13;22.10;;;;;;;;;;5034672;28;20484;-66
2021/06/07 14:12:43;;;;;;;24.67;22.77;;;;;;;;;;5034718;28;20478;-66
2021/06/07 14:15:10;;;;;;;22.83;21.03;;;;;;;;;;5034456;28;20449;-71
2021/06/07 14:17:37;;;;;;;22.70;20.97;;;;;;;;;;5033976;28;20460;-66
2021/06/07 14:20:04;;;;;;;24.10;22.30;;;;;;;;;;5034440;28;20447;-66
2021/06/07 14:25:17;;;;;;;22.77;20.87;;;;;;;;;;5034031;28;20497;-70
2021/06/07 14:27:44;;;;;;;25.33;23.23;;;;;;;;;;5034105;28;21041;-67
2021/06/07 14:30:11;;;;;;;21.80;19.90;;;;;;;;;;5034262;28;20480;-66